createdAt,value
2023-02-28T00:02:31.571Z,62.17
2023-02-28T00:05:22.223Z,62.16
2023-02-28T00:08:07.385Z,61.54
2023-02-28T00:10:52.542Z,61.96
2023-02-28T00:13:43.873Z,62.61
2023-02-28T00:16:29.305Z,62.50
2023-02-28T00:19:14.822Z,62.62
2023-02-28T00:21:59.957Z,62.47
2023-02-28T00:24:45.793Z,62.57
2023-02-28T00:27:31.547Z,62.24
2023-02-28T00:30:19.679Z,62.30
2023-02-28T00:33:05.046Z,62.64
2023-02-28T00:35:50.496Z,62.01
2023-02-28T00:38:36.144Z,62.67
2023-02-28T00:41:21.779Z,62.80
2023-02-28T00:44:06.904Z,62.52
2023-02-28T00:46:52.624Z,62.43
2023-02-28T00:49:37.869Z,63.06
2023-02-28T00:52:23.161Z,63.33
2023-02-28T00:55:09.032Z,62.89
2023-02-28T00:57:54.379Z,62.86
2023-02-28T01:00:39.882Z,62.90
2023-02-28T01:03:25.128Z,62.80
2023-02-28T01:06:10.499Z,63.24
2023-02-28T01:08:57.466Z,62.57
2023-02-28T01:11:44.879Z,62.62
2023-02-28T01:14:30.481Z,62.38
2023-02-28T01:17:15.801Z,62.91
2023-02-28T01:20:01.125Z,62.26
2023-02-28T01:22:47.614Z,62.88
2023-02-28T01:25:36.655Z,63.08
2023-02-28T01:28:24.173Z,63.84
2023-02-28T01:31:10.678Z,64.01
2023-02-28T01:33:57.038Z,63.42
2023-02-28T01:36:42.905Z,63.44
2023-02-28T01:39:29.694Z,63.52
2023-02-28T01:42:15.508Z,63.40
2023-02-28T01:45:03.527Z,63.65
2023-02-28T01:47:52.895Z,63.78
2023-02-28T01:50:42.038Z,64.10
2023-02-28T01:53:33.391Z,63.68
2023-02-28T01:56:23.506Z,63.73
2023-02-28T01:59:08.896Z,63.50
2023-02-28T02:01:54.920Z,63.73
2023-02-28T02:04:52.502Z,63.94
2023-02-28T02:07:41.571Z,63.94
2023-02-28T02:10:41.694Z,64.63
2023-02-28T02:14:02.861Z,64.36
2023-02-28T02:17:13.524Z,64.99
2023-02-28T02:20:27.087Z,65.70
2023-02-28T02:23:27.663Z,66.01
2023-02-28T02:26:21.947Z,66.09
2023-02-28T02:29:42.258Z,66.18
2023-02-28T02:32:50.411Z,66.51
2023-02-28T02:35:56.961Z,66.55
2023-02-28T02:39:14.764Z,66.17
2023-02-28T02:42:03.658Z,65.83
2023-02-28T02:45:01.798Z,66.24
2023-02-28T02:47:47.816Z,66.15
2023-02-28T02:50:42.440Z,65.70
2023-02-28T02:53:35.745Z,66.25
2023-02-28T02:56:26.065Z,66.58
2023-02-28T02:59:14.260Z,66.19
2023-02-28T03:02:05.126Z,66.83
2023-02-28T03:04:54.535Z,66.22
2023-02-28T03:07:40.283Z,66.35
2023-02-28T03:10:39.278Z,66.77
2023-02-28T03:13:24.623Z,66.79
2023-02-28T03:16:50.699Z,66.74
2023-02-28T03:19:55.594Z,67.10
2023-02-28T03:22:53.344Z,67.00
2023-02-28T03:26:00.270Z,67.53
2023-02-28T03:28:51.856Z,67.42
2023-02-28T03:32:02.358Z,67.23
2023-02-28T03:34:56.251Z,67.73
2023-02-28T03:37:44.881Z,68.02
2023-02-28T03:40:34.483Z,67.97
2023-02-28T03:43:26.000Z,67.35
2023-02-28T03:46:16.705Z,67.16
2023-02-28T03:49:09.461Z,67.72
2023-02-28T03:51:57.240Z,67.53
2023-02-28T03:54:47.084Z,67.46
2023-02-28T03:57:42.056Z,67.65
2023-02-28T04:00:35.169Z,67.44
2023-02-28T04:03:20.620Z,67.81
2023-02-28T04:06:12.156Z,67.64
2023-02-28T04:08:57.546Z,68.19
2023-02-28T04:11:52.315Z,68.25
2023-02-28T04:14:37.942Z,68.24
2023-02-28T04:17:23.012Z,68.71
2023-02-28T04:20:10.623Z,68.73
2023-02-28T04:22:55.884Z,68.71
2023-02-28T04:25:41.713Z,68.31
2023-02-28T04:28:27.363Z,68.64
2023-02-28T04:31:12.604Z,68.27
2023-02-28T04:33:58.750Z,68.88
2023-02-28T04:36:44.016Z,68.50
2023-02-28T04:39:30.395Z,69.09
2023-02-28T04:42:15.956Z,68.81
2023-02-28T04:45:01.585Z,68.83
2023-02-28T04:47:47.415Z,69.39
2023-02-28T04:50:33.108Z,68.73
2023-02-28T04:53:19.340Z,69.30
2023-02-28T04:56:05.127Z,69.78
2023-02-28T04:58:51.620Z,69.88
2023-02-28T05:01:37.382Z,69.44
2023-02-28T05:04:22.528Z,69.55
2023-02-28T05:07:07.934Z,69.32
2023-02-28T05:09:53.989Z,69.58
2023-02-28T05:12:39.797Z,69.17
2023-02-28T05:15:25.556Z,69.74
2023-02-28T05:18:11.078Z,69.29
2023-02-28T05:20:57.076Z,69.44
2023-02-28T05:23:42.209Z,69.59
2023-02-28T05:26:28.778Z,69.94
2023-02-28T05:29:13.892Z,69.52
2023-02-28T05:31:59.406Z,69.14
2023-02-28T05:34:44.970Z,69.22
2023-02-28T05:37:30.092Z,69.17
2023-02-28T05:40:16.407Z,68.98
2023-02-28T05:43:02.084Z,69.58
2023-02-28T05:45:47.501Z,68.45
2023-02-28T05:48:34.394Z,68.83
2023-02-28T05:51:19.666Z,69.11
2023-02-28T05:54:08.529Z,69.19
2023-02-28T05:56:54.232Z,68.60
2023-02-28T05:59:40.808Z,68.94
2023-02-28T06:02:26.227Z,69.90
2023-02-28T06:05:15.731Z,69.71
2023-02-28T06:08:00.821Z,69.10
2023-02-28T06:10:46.396Z,69.52
2023-02-28T06:13:31.635Z,69.13
2023-02-28T06:16:17.975Z,69.84
2023-02-28T06:19:04.799Z,69.01
2023-02-28T06:21:51.810Z,68.41
2023-02-28T06:24:37.048Z,69.30
2023-02-28T06:27:23.005Z,69.21
2023-02-28T06:30:08.657Z,68.67
2023-02-28T06:32:55.269Z,68.48
2023-02-28T06:35:40.747Z,68.30
2023-02-28T06:38:26.147Z,68.25
2023-02-28T06:41:11.972Z,67.42
2023-02-28T06:43:57.359Z,67.51
2023-02-28T06:46:44.306Z,67.32
2023-02-28T06:49:30.577Z,66.66
2023-02-28T06:52:16.077Z,66.42
2023-02-28T06:55:01.455Z,66.47
2023-02-28T06:57:46.870Z,65.96
2023-02-28T07:00:31.920Z,65.05
2023-02-28T07:03:18.695Z,64.64
2023-02-28T07:06:05.436Z,65.17
2023-02-28T07:08:51.862Z,64.01
2023-02-28T07:11:37.671Z,63.96
2023-02-28T07:14:23.613Z,64.13
2023-02-28T07:17:11.782Z,63.17
2023-02-28T07:19:58.922Z,62.17
2023-02-28T07:22:44.535Z,62.14
2023-02-28T07:25:30.344Z,62.38
2023-02-28T07:28:17.440Z,61.74
2023-02-28T07:31:06.817Z,61.05
2023-02-28T07:33:56.742Z,59.75
2023-02-28T07:36:44.526Z,59.12
2023-02-28T07:39:29.624Z,57.57
2023-02-28T07:42:14.758Z,53.75
2023-02-28T07:44:59.896Z,50.44
2023-02-28T07:47:45.570Z,48.94
2023-02-28T07:50:31.898Z,46.57
2023-02-28T07:53:17.269Z,46.23
2023-02-28T07:56:03.632Z,46.40
2023-02-28T07:58:48.770Z,46.46
2023-02-28T08:01:34.197Z,45.41
2023-02-28T08:04:19.707Z,46.10
2023-02-28T08:07:04.913Z,45.84
2023-02-28T08:09:50.242Z,45.50
2023-02-28T08:12:35.742Z,45.89
2023-02-28T08:15:21.241Z,46.39
2023-02-28T08:18:06.823Z,45.76
2023-02-28T08:20:52.406Z,42.66
2023-02-28T08:23:38.208Z,41.57
2023-02-28T08:26:23.875Z,41.54
2023-02-28T08:29:09.355Z,42.34
2023-02-28T08:31:54.816Z,42.21
2023-02-28T08:34:41.425Z,42.96
2023-02-28T08:37:27.129Z,42.66
2023-02-28T08:40:19.012Z,40.40
2023-02-28T08:43:04.558Z,40.56
2023-02-28T08:45:52.910Z,40.38
2023-02-28T08:48:41.129Z,40.31
2023-02-28T08:51:28.064Z,40.23
2023-02-28T08:54:13.428Z,40.24
2023-02-28T08:56:58.613Z,39.99
2023-02-28T08:59:44.115Z,39.21
2023-02-28T09:02:29.432Z,38.91
2023-02-28T09:05:14.779Z,38.03
2023-02-28T09:08:00.014Z,35.76
2023-02-28T09:10:45.337Z,35.72
2023-02-28T09:13:33.292Z,36.21
2023-02-28T09:16:18.631Z,34.90
2023-02-28T09:19:03.690Z,35.22
2023-02-28T09:21:49.288Z,35.04
2023-02-28T09:24:34.317Z,35.07
2023-02-28T09:27:19.869Z,34.70
2023-02-28T09:30:05.763Z,32.99
2023-02-28T09:32:54.615Z,32.28
2023-02-28T09:35:39.865Z,32.52
2023-02-28T09:38:25.101Z,33.28
2023-02-28T09:41:20.527Z,33.33
2023-02-28T09:44:06.574Z,33.90
2023-02-28T09:47:20.350Z,34.73
2023-02-28T09:50:37.256Z,34.76
2023-02-28T09:53:40.454Z,35.70
2023-02-28T09:56:33.025Z,34.75
2023-02-28T09:59:56.211Z,36.04
2023-02-28T10:03:06.708Z,36.77
2023-02-28T10:06:21.553Z,36.29
2023-02-28T10:09:16.800Z,36.78
2023-02-28T10:12:06.823Z,37.20
2023-02-28T10:14:53.524Z,36.47
2023-02-28T10:17:55.361Z,36.47
2023-02-28T10:20:49.926Z,36.96
2023-02-28T10:23:38.745Z,36.83
2023-02-28T10:26:27.685Z,36.87
2023-02-28T10:29:13.486Z,36.11
2023-02-28T10:32:03.582Z,35.95
2023-02-28T10:34:58.093Z,35.52
2023-02-28T10:37:46.540Z,35.65
2023-02-28T10:40:36.638Z,35.44
2023-02-28T10:43:24.016Z,34.61
2023-02-28T10:46:09.538Z,35.26
2023-02-28T10:49:03.951Z,35.05
2023-02-28T10:51:53.712Z,35.77
2023-02-28T10:54:39.227Z,35.15
2023-02-28T10:57:25.496Z,34.95
2023-02-28T11:00:22.548Z,35.52
2023-02-28T11:03:25.468Z,35.06
2023-02-28T11:06:26.835Z,35.16
2023-02-28T11:09:26.101Z,34.81
2023-02-28T11:12:33.990Z,35.55
2023-02-28T11:15:26.875Z,35.15
2023-02-28T11:18:48.891Z,35.35
2023-02-28T11:21:41.275Z,36.32
2023-02-28T11:24:31.704Z,36.85
2023-02-28T11:27:32.801Z,36.53
2023-02-28T11:30:31.977Z,35.83
2023-02-28T11:33:40.983Z,35.46
2023-02-28T11:36:29.557Z,35.48
2023-02-28T11:39:16.799Z,36.66
2023-02-28T11:42:23.499Z,35.62
2023-02-28T11:45:08.837Z,36.45
2023-02-28T11:48:00.934Z,35.68
2023-02-28T11:51:14.403Z,35.66
2023-02-28T11:54:35.209Z,35.36
2023-02-28T11:57:33.615Z,35.77
2023-02-28T12:00:30.947Z,34.76
2023-02-28T12:03:20.476Z,35.20
2023-02-28T12:06:29.322Z,35.80
2023-02-28T12:09:38.223Z,35.56
2023-02-28T12:12:42.429Z,36.50
2023-02-28T12:15:49.554Z,36.73
2023-02-28T12:19:19.956Z,36.54
2023-02-28T12:22:24.917Z,41.98
2023-02-28T12:25:33.495Z,37.08
2023-02-28T12:28:24.840Z,37.64
2023-02-28T12:31:19.098Z,36.85
2023-02-28T12:34:10.834Z,37.38
2023-02-28T12:36:59.716Z,36.97
2023-02-28T12:39:53.907Z,36.24
2023-02-28T12:42:43.515Z,36.71
2023-02-28T12:45:51.202Z,37.10
2023-02-28T12:49:07.798Z,36.16
2023-02-28T12:51:54.152Z,36.16
2023-02-28T12:54:48.419Z,35.77
2023-02-28T12:57:42.096Z,35.76
2023-02-28T13:00:35.609Z,36.45
2023-02-28T13:03:40.881Z,36.34
2023-02-28T13:06:41.389Z,37.24
2023-02-28T13:09:27.332Z,37.22
2023-02-28T13:12:15.296Z,37.23
2023-02-28T13:15:22.354Z,36.10
2023-02-28T13:18:38.160Z,35.82
2023-02-28T13:21:28.218Z,36.67
2023-02-28T13:24:45.177Z,36.47
2023-02-28T13:27:37.616Z,35.88
2023-02-28T13:30:57.195Z,36.41
2023-02-28T13:33:51.369Z,35.23
2023-02-28T13:36:36.762Z,35.91
2023-02-28T13:39:37.721Z,36.09
2023-02-28T13:42:22.893Z,35.97
2023-02-28T13:45:08.041Z,35.94
2023-02-28T13:47:56.811Z,36.08
2023-02-28T13:50:43.202Z,35.42
2023-02-28T13:53:52.328Z,35.07
2023-02-28T13:56:52.202Z,35.59
2023-02-28T14:00:10.836Z,35.18
2023-02-28T14:03:17.436Z,36.14
2023-02-28T14:06:09.808Z,35.30
2023-02-28T14:09:12.753Z,36.25
2023-02-28T14:11:58.662Z,36.50
2023-02-28T14:14:44.083Z,35.75
2023-02-28T14:17:29.624Z,36.21
2023-02-28T14:20:19.973Z,36.29
2023-02-28T14:23:26.429Z,36.60
2023-02-28T14:26:34.300Z,37.15
2023-02-28T14:29:29.175Z,36.69
2023-02-28T14:32:48.984Z,37.01
2023-02-28T14:35:52.185Z,37.12
2023-02-28T14:38:44.035Z,36.89
2023-02-28T14:41:39.552Z,37.19
2023-02-28T14:44:27.081Z,36.19
2023-02-28T14:47:16.687Z,36.87
2023-02-28T14:50:05.160Z,35.17
2023-02-28T14:52:56.099Z,36.14
2023-02-28T14:55:46.087Z,36.16
2023-02-28T14:58:34.482Z,35.79
2023-02-28T15:01:23.056Z,36.70
2023-02-28T15:04:23.385Z,37.43
2023-02-28T15:07:15.271Z,36.35
2023-02-28T15:10:16.772Z,37.11
2023-02-28T15:13:22.486Z,37.57
2023-02-28T15:16:20.157Z,37.70
2023-02-28T15:19:25.941Z,37.66
2023-02-28T15:22:19.961Z,38.47
2023-02-28T15:25:06.958Z,38.23
2023-02-28T15:27:56.263Z,38.87
2023-02-28T15:30:55.055Z,37.93
2023-02-28T15:33:57.002Z,38.21
2023-02-28T15:36:42.247Z,38.35
2023-02-28T15:39:30.064Z,38.34
2023-02-28T15:42:21.494Z,38.96
2023-02-28T15:45:27.206Z,38.64
2023-02-28T15:48:16.103Z,38.17
2023-02-28T15:51:04.953Z,39.22
2023-02-28T15:54:08.772Z,38.66
2023-02-28T15:56:57.742Z,39.49
2023-02-28T15:59:51.209Z,39.15
2023-02-28T16:02:38.943Z,39.73
2023-02-28T16:05:32.721Z,39.88
2023-02-28T16:08:18.800Z,40.34
2023-02-28T16:11:03.967Z,40.67
2023-02-28T16:13:51.371Z,40.54
2023-02-28T16:16:44.042Z,40.37
2023-02-28T16:19:30.119Z,40.66
2023-02-28T16:22:15.549Z,40.82
2023-02-28T16:25:00.964Z,41.10
2023-02-28T16:27:50.343Z,41.11
2023-02-28T16:30:36.521Z,41.45
2023-02-28T16:33:21.644Z,42.06
2023-02-28T16:36:07.644Z,41.62
2023-02-28T16:38:53.003Z,42.01
2023-02-28T16:41:38.381Z,41.57
2023-02-28T16:44:32.939Z,42.54
2023-02-28T16:47:18.808Z,42.68
2023-02-28T16:50:13.848Z,41.84
2023-02-28T16:52:59.161Z,42.13
2023-02-28T16:55:44.727Z,43.12
2023-02-28T16:58:30.162Z,42.84
2023-02-28T17:01:15.972Z,42.99
2023-02-28T17:04:03.813Z,43.31
2023-02-28T17:06:49.291Z,42.81
2023-02-28T17:09:42.393Z,43.13
2023-02-28T17:12:28.495Z,43.24
2023-02-28T17:15:16.232Z,42.88
2023-02-28T17:18:01.860Z,42.71
2023-02-28T17:20:51.653Z,43.49
2023-02-28T17:23:36.991Z,43.11
2023-02-28T17:26:25.273Z,43.63
2023-02-28T17:29:17.199Z,43.37
2023-02-28T17:32:12.257Z,43.77
2023-02-28T17:35:02.667Z,44.15
2023-02-28T17:37:47.979Z,44.11
2023-02-28T17:40:34.818Z,44.15
2023-02-28T17:43:20.059Z,44.26
2023-02-28T17:46:08.747Z,44.50
2023-02-28T17:48:57.333Z,44.46
2023-02-28T17:51:42.954Z,44.36
2023-02-28T17:54:28.892Z,44.22
2023-02-28T17:57:17.299Z,44.51
2023-02-28T18:00:07.198Z,44.60
2023-02-28T18:02:57.052Z,44.92
2023-02-28T18:05:42.361Z,44.43
2023-02-28T18:08:27.556Z,44.95
2023-02-28T18:11:21.961Z,45.11
2023-02-28T18:14:07.961Z,44.45
2023-02-28T18:16:55.076Z,44.81
2023-02-28T18:19:40.423Z,45.30
2023-02-28T18:22:26.057Z,45.59
2023-02-28T18:25:16.739Z,45.53
2023-02-28T18:28:02.146Z,45.46
2023-02-28T18:30:47.585Z,45.88
2023-02-28T18:33:33.107Z,45.43
2023-02-28T18:36:21.811Z,45.60
2023-02-28T18:39:06.994Z,46.55
2023-02-28T18:41:52.815Z,46.34
2023-02-28T18:44:38.395Z,46.83
2023-02-28T18:47:24.046Z,47.06
2023-02-28T18:50:10.197Z,46.50
2023-02-28T18:52:57.730Z,46.68
2023-02-28T18:55:43.300Z,46.45
2023-02-28T18:58:29.113Z,46.50
2023-02-28T19:01:19.033Z,46.96
2023-02-28T19:04:05.193Z,47.02
2023-02-28T19:06:50.339Z,47.80
2023-02-28T19:09:35.875Z,47.37
2023-02-28T19:12:20.978Z,48.27
2023-02-28T19:15:07.210Z,47.69
2023-02-28T19:17:52.766Z,47.77
2023-02-28T19:20:37.852Z,48.54
2023-02-28T19:23:23.471Z,48.47
2023-02-28T19:26:11.084Z,48.88
2023-02-28T19:28:56.514Z,48.90
2023-02-28T19:31:42.090Z,48.68
2023-02-28T19:34:27.389Z,48.58
2023-02-28T19:37:13.380Z,48.43
2023-02-28T19:39:58.694Z,48.88
2023-02-28T19:42:44.320Z,49.65
2023-02-28T19:45:29.726Z,49.29
2023-02-28T19:48:14.928Z,49.08
2023-02-28T19:51:10.078Z,49.42
2023-02-28T19:53:55.484Z,49.86
2023-02-28T19:56:40.948Z,49.43
2023-02-28T19:59:38.345Z,49.99
2023-02-28T20:02:24.324Z,50.39
2023-02-28T20:05:10.009Z,50.51
2023-02-28T20:07:56.005Z,50.23
2023-02-28T20:10:41.511Z,50.40
2023-02-28T20:13:28.444Z,50.21
2023-02-28T20:16:14.761Z,50.50
2023-02-28T20:18:59.935Z,50.98
2023-02-28T20:21:45.270Z,50.10
2023-02-28T20:24:30.701Z,50.31
2023-02-28T20:27:16.025Z,50.62
2023-02-28T20:30:02.138Z,51.01
2023-02-28T20:32:47.643Z,51.15
2023-02-28T20:35:33.668Z,51.61
2023-02-28T20:38:20.156Z,51.77
2023-02-28T20:41:06.869Z,51.61
2023-02-28T20:43:58.227Z,52.21
2023-02-28T20:46:43.822Z,52.34
2023-02-28T20:49:29.084Z,51.74
2023-02-28T20:52:14.170Z,51.49
2023-02-28T20:54:59.346Z,51.92
2023-02-28T20:57:44.974Z,51.92
2023-02-28T21:00:31.214Z,52.42
2023-02-28T21:03:16.684Z,52.81
2023-02-28T21:06:03.312Z,53.12
2023-02-28T21:08:49.350Z,53.50
2023-02-28T21:11:37.514Z,53.47
2023-02-28T21:14:23.889Z,53.82
2023-02-28T21:17:10.336Z,53.65
2023-02-28T21:19:55.577Z,53.43
2023-02-28T21:22:40.826Z,54.08
2023-02-28T21:25:26.269Z,54.34
2023-02-28T21:28:11.795Z,54.58
2023-02-28T21:31:18.191Z,54.48
2023-02-28T21:34:07.028Z,54.92
2023-02-28T21:36:53.203Z,54.66
2023-02-28T21:39:38.443Z,55.19
2023-02-28T21:42:23.914Z,55.35
2023-02-28T21:45:09.473Z,55.07
2023-02-28T21:47:55.089Z,55.45
2023-02-28T21:50:40.465Z,55.65
2023-02-28T21:53:25.722Z,56.02
2023-02-28T21:56:24.280Z,55.66
2023-02-28T21:59:10.393Z,56.07
2023-02-28T22:01:55.697Z,56.08
2023-02-28T22:04:41.029Z,56.52
2023-02-28T22:07:26.067Z,57.26
2023-02-28T22:10:11.686Z,56.44
2023-02-28T22:13:01.944Z,56.69
2023-02-28T22:15:47.458Z,56.96
2023-02-28T22:18:34.520Z,57.18
2023-02-28T22:21:21.087Z,56.61
2023-02-28T22:24:07.393Z,56.91
2023-02-28T22:26:53.541Z,57.01
2023-02-28T22:29:38.749Z,56.83
2023-02-28T22:32:24.023Z,56.78
2023-02-28T22:35:10.032Z,56.69
2023-02-28T22:37:55.492Z,56.69
2023-02-28T22:40:41.640Z,56.83
2023-02-28T22:43:28.161Z,57.11
2023-02-28T22:46:13.710Z,57.71
2023-02-28T22:49:00.174Z,58.00
2023-02-28T22:51:45.724Z,58.28
2023-02-28T22:54:31.165Z,58.19
2023-02-28T22:57:16.589Z,58.18
2023-02-28T23:00:06.823Z,57.35
2023-02-28T23:02:52.076Z,57.87
2023-02-28T23:05:37.470Z,58.48
2023-02-28T23:08:23.257Z,58.23
2023-02-28T23:11:08.495Z,57.92
2023-02-28T23:14:00.208Z,58.35
2023-02-28T23:16:48.800Z,58.90
2023-02-28T23:19:34.156Z,58.71
2023-02-28T23:22:19.273Z,58.61
2023-02-28T23:25:05.322Z,59.01
2023-02-28T23:27:50.637Z,59.07
2023-02-28T23:30:38.594Z,58.44
2023-02-28T23:33:26.285Z,58.60
2023-02-28T23:36:14.397Z,58.71
2023-02-28T23:38:59.865Z,58.95
2023-02-28T23:41:46.447Z,58.97
2023-02-28T23:44:32.317Z,59.58
2023-02-28T23:47:17.707Z,59.36
2023-02-28T23:50:04.471Z,59.86
2023-02-28T23:52:49.712Z,60.47
2023-02-28T23:55:34.934Z,60.62
2023-02-28T23:58:20.556Z,60.90
